Time;durP1;ratioP1;P1;durP2;ratioP2;P2;SDS_P1;SDS_P2;PMS_P1;PMS_P2;Temp;Humidity;BMP_temperature;BMP_pressure;BME280_temperature;BME280_humidity;BME280_pressure;Samples;Min_cycle;Max_cycle;Signal;HPM_P1;HPM_P2
2022/11/26 00:02:19;;;;;;;21.52;10.73;;;4.70;99.90;;;;;;7375545;19;20513;-43
2022/11/26 00:04:46;;;;;;;22.55;10.85;;;4.70;99.90;;;;;;7376533;19;20023;-48
2022/11/26 00:07:14;;;;;;;23.63;11.32;;;4.70;99.90;;;;;;7376741;19;20473;-45
2022/11/26 00:09:40;;;;;;;20.27;9.90;;;4.60;99.90;;;;;;7372647;19;20018;-44
2022/11/26 00:12:35;;;;;;;20.35;11.70;;;4.60;99.90;;;;;;7381961;19;20026;-44
2022/11/26 00:15:20;;;;;;;23.45;10.77;;;4.60;99.90;;;;;;7378372;19;20542;-44
2022/11/26 00:17:47;;;;;;;22.60;12.00;;;4.50;99.90;;;;;;7382671;19;20445;-45
2022/11/26 00:20:14;;;;;;;29.25;12.75;;;4.50;99.90;;;;;;7378669;19;20032;-47
2022/11/26 00:22:47;;;;;;;18.90;13.15;;;4.60;99.90;;;;;;7377696;19;20024;-44
2022/11/26 00:25:17;;;;;;;23.67;12.55;;;4.60;99.90;;;;;;7378690;19;20018;-43
2022/11/26 00:27:43;;;;;;;29.48;13.88;;;4.60;99.90;;;;;;7381194;19;20451;-44
2022/11/26 00:30:18;;;;;;;28.70;14.98;;;4.60;99.90;;;;;;7380766;19;20015;-44
2022/11/26 00:32:45;;;;;;;35.90;15.30;;;4.60;99.90;;;;;;7381100;19;20010;-44
2022/11/26 00:35:11;;;;;;;29.30;14.38;;;4.60;99.90;;;;;;7378811;19;20081;-44
2022/11/26 00:38:01;;;;;;;35.10;13.52;;;4.60;99.90;;;;;;7377690;19;20437;-46
2022/11/26 00:40:32;;;;;;;30.58;14.77;;;4.60;99.90;;;;;;7377151;19;20018;-46
2022/11/26 00:42:58;;;;;;;30.27;13.60;;;4.70;99.90;;;;;;7380300;19;20505;-44
2022/11/26 00:45:28;;;;;;;24.25;13.00;;;4.70;99.90;;;;;;7381926;19;20042;-45
2022/11/26 00:47:56;;;;;;;24.05;13.45;;;4.60;99.90;;;;;;7378443;19;20018;-45
2022/11/26 00:50:25;;;;;;;26.67;14.77;;;4.60;99.90;;;;;;7376642;19;20094;-46
2022/11/26 00:52:54;;;;;;;26.35;14.63;;;4.70;99.90;;;;;;7380367;19;20406;-43
2022/11/26 00:55:36;;;;;;;32.42;13.48;;;4.60;99.90;;;;;;7381020;19;20490;-44
2022/11/26 00:58:03;;;;;;;;;;;4.50;99.90;;;;;;7378784;19;20491;-44
2022/11/26 01:00:33;;;;;;;27.67;12.40;;;4.50;99.90;;;;;;7375835;19;19919;-47
2022/11/26 01:03:00;;;;;;;27.17;13.55;;;4.40;99.90;;;;;;7375919;19;20018;-57
2022/11/26 01:05:29;;;;;;;27.33;13.00;;;4.30;99.90;;;;;;7373929;19;20610;-46
2022/11/26 01:07:59;;;;;;;23.95;11.88;;;4.40;99.90;;;;;;7376723;19;20019;-45
2022/11/26 01:10:28;;;;;;;26.60;12.90;;;4.30;99.90;;;;;;7374875;19;20015;-44
2022/11/26 01:12:55;;;;;;;22.42;13.85;;;4.30;99.90;;;;;;7376482;19;20018;-47
2022/11/26 01:15:24;;;;;;;18.15;11.63;;;4.30;99.90;;;;;;7373425;19;20032;-49
2022/11/26 01:17:51;;;;;;;26.50;12.15;;;4.20;99.90;;;;;;7377882;19;20038;-45
2022/11/26 01:20:27;;;;;;;18.60;10.23;;;4.20;99.90;;;;;;7378390;19;20019;-47
2022/11/26 01:22:56;;;;;;;26.33;12.20;;;4.10;99.90;;;;;;7373891;19;20018;-45
2022/11/26 01:25:24;;;;;;;22.98;11.35;;;4.10;99.90;;;;;;7376409;19;20488;-45
2022/11/26 01:27:50;;;;;;;20.17;12.75;;;4.00;99.90;;;;;;7375086;19;20011;-44
2022/11/26 01:30:29;;;;;;;16.52;10.68;;;4.00;99.90;;;;;;7378722;19;20022;-45
2022/11/26 01:32:56;;;;;;;24.17;11.10;;;4.00;99.90;;;;;;7370968;19;20448;-44
2022/11/26 01:35:22;;;;;;;27.88;11.90;;;4.00;99.90;;;;;;7375214;19;20023;-46
2022/11/26 01:37:48;;;;;;;21.90;11.73;;;3.90;99.90;;;;;;7372455;19;20063;-45
2022/11/26 01:40:24;;;;;;;22.20;10.73;;;3.90;99.90;;;;;;7375764;19;20383;-46
2022/11/26 01:42:57;;;;;;;22.38;11.50;;;3.90;99.90;;;;;;7374869;19;20022;-48
2022/11/26 01:45:24;;;;;;;25.10;12.25;;;3.80;99.90;;;;;;7375714;19;20014;-45
2022/11/26 01:47:50;;;;;;;23.30;12.02;;;3.80;99.90;;;;;;7376534;19;20018;-44
2022/11/26 01:50:31;;;;;;;18.70;11.10;;;3.80;99.90;;;;;;7379060;19;20026;-47
2022/11/26 01:53:10;;;;;;;40.30;12.32;;;3.80;99.90;;;;;;7378994;19;20018;-44
2022/11/26 01:55:46;;;;;;;41.40;12.25;;;3.70;99.90;;;;;;7374798;19;20014;-45
2022/11/26 01:58:18;;;;;;;22.27;10.93;;;3.70;99.90;;;;;;7375577;19;20046;-45
2022/11/26 02:00:48;;;;;;;22.27;10.98;;;3.60;99.90;;;;;;7376721;19;20395;-44
2022/11/26 02:03:15;;;;;;;20.55;11.85;;;3.60;99.90;;;;;;7376284;19;20070;-47
2022/11/26 02:05:54;;;;;;;24.08;11.82;;;3.70;99.90;;;;;;7375792;19;20033;-49
2022/11/26 02:08:24;;;;;;;26.55;12.80;;;3.70;99.90;;;;;;7385761;19;20019;-49
2022/11/26 02:10:51;;;;;;;19.33;12.80;;;3.70;99.90;;;;;;7384099;19;20018;-44
2022/11/26 02:13:18;;;;;;;20.58;12.70;;;3.70;99.90;;;;;;7385857;19;20461;-44
2022/11/26 02:16:01;;;;;;;29.20;13.68;;;3.70;99.90;;;;;;7381865;19;20455;-44
2022/11/26 02:18:35;;;;;;;26.98;14.10;;;3.70;99.90;;;;;;7385038;19;20014;-44
2022/11/26 02:21:07;;;;;;;24.50;14.65;;;3.70;99.90;;;;;;7381327;19;20612;-44
2022/11/26 02:24:06;;;;;;;31.10;12.85;;;3.70;99.90;;;;;;7387093;19;20019;-46
2022/11/26 02:26:41;;;;;;;23.38;12.95;;;3.70;99.90;;;;;;7381365;19;20022;-47
2022/11/26 02:29:20;;;;;;;27.75;14.45;;;3.60;99.90;;;;;;7381609;19;20102;-45
2022/11/26 02:32:01;;;;;;;23.60;13.20;;;3.60;99.90;;;;;;7385181;19;20023;-45
2022/11/26 02:34:33;;;;;;;27.55;13.63;;;3.60;99.90;;;;;;7384439;19;20022;-44
2022/11/26 02:37:08;;;;;;;21.00;13.10;;;3.60;99.90;;;;;;7384678;19;20070;-45
2022/11/26 02:39:34;;;;;;;26.35;13.27;;;3.60;99.90;;;;;;7382863;19;20019;-45
2022/11/26 02:42:02;;;;;;;26.95;14.07;;;3.60;99.90;;;;;;7384484;19;20555;-45
2022/11/26 02:44:42;;;;;;;26.20;14.25;;;3.60;99.90;;;;;;7383616;19;20014;-44
2022/11/26 02:47:12;;;;;;;31.35;15.10;;;3.50;99.90;;;;;;7378796;19;20090;-48
2022/11/26 02:49:40;;;;;;;31.38;14.88;;;3.60;99.90;;;;;;7383149;19;20430;-45
2022/11/26 02:52:09;;;;;;;30.63;15.20;;;3.60;99.90;;;;;;7383591;19;20018;-44
2022/11/26 02:54:36;;;;;;;28.60;15.15;;;3.60;99.90;;;;;;7381159;19;20023;-45
2022/11/26 02:57:06;;;;;;;25.25;14.75;;;3.60;99.90;;;;;;7381122;19;20461;-46
2022/11/26 02:59:33;;;;;;;27.05;15.40;;;3.50;99.90;;;;;;7384288;19;20610;-44
2022/11/26 03:02:35;;;;;;;28.02;14.23;;;3.50;99.90;;;;;;7382683;19;20446;-46
2022/11/26 03:05:03;;;;;;;28.80;13.95;;;3.50;99.90;;;;;;7376106;19;20022;-46
2022/11/26 03:07:32;;;;;;;37.00;14.75;;;3.40;99.90;;;;;;7379025;19;20063;-44
2022/11/26 03:10:00;;;;;;;29.33;13.05;;;3.40;99.90;;;;;;7381333;19;20366;-44
2022/11/26 03:12:28;;;;;;;29.95;12.63;;;3.40;99.90;;;;;;7382576;19;20725;-45
2022/11/26 03:14:54;;;;;;;35.75;12.50;;;3.30;99.90;;;;;;7378269;19;20014;-45
2022/11/26 03:17:21;;;;;;;29.50;13.55;;;3.30;99.90;;;;;;7379975;19;20026;-45
2022/11/26 03:19:47;;;;;;;19.60;12.48;;;3.30;99.90;;;;;;7382366;19;20422;-47
2022/11/26 03:22:14;;;;;;;85.18;14.10;;;3.20;99.90;;;;;;7381188;19;20478;-45
2022/11/26 03:24:41;;;;;;;32.13;12.52;;;3.20;99.90;;;;;;7381677;19;20030;-45
2022/11/26 03:27:07;;;;;;;37.90;11.90;;;3.20;99.90;;;;;;7382510;19;20023;-44
2022/11/26 03:29:33;;;;;;;19.80;12.68;;;3.20;99.90;;;;;;7378748;19;20143;-46
2022/11/26 03:32:00;;;;;;;19.70;12.23;;;3.20;99.90;;;;;;7379239;19;20112;-49
2022/11/26 03:34:26;;;;;;;23.00;11.68;;;3.20;99.90;;;;;;7382081;19;20018;-44
2022/11/26 03:36:52;;;;;;;17.83;12.73;;;3.20;99.90;;;;;;7381509;19;20018;-44
2022/11/26 03:39:18;;;;;;;16.50;11.40;;;3.10;99.90;;;;;;7379081;19;20018;-48
2022/11/26 03:41:44;;;;;;;22.02;12.38;;;3.10;99.90;;;;;;7383697;19;20445;-46
2022/11/26 03:44:11;;;;;;;22.40;14.10;;;3.10;99.90;;;;;;7379676;19;20086;-44
2022/11/26 03:46:38;;;;;;;21.38;13.50;;;3.20;99.90;;;;;;7377507;19;20018;-45
2022/11/26 03:49:05;;;;;;;47.72;15.90;;;3.10;99.90;;;;;;7377607;19;20131;-47
2022/11/26 03:51:31;;;;;;;29.63;16.20;;;3.20;99.90;;;;;;7381249;19;20050;-48
2022/11/26 03:53:58;;;;;;;25.85;15.82;;;3.20;99.90;;;;;;7380238;19;20210;-44
2022/11/26 03:56:24;;;;;;;27.92;15.80;;;3.20;99.90;;;;;;7377098;19;20026;-44
2022/11/26 03:58:50;;;;;;;24.63;17.20;;;3.30;99.90;;;;;;7378303;19;20025;-44
2022/11/26 04:01:16;;;;;;;30.90;17.63;;;3.30;99.90;;;;;;7376505;19;20015;-45
2022/11/26 04:03:43;;;;;;;24.42;16.67;;;3.30;99.90;;;;;;7380474;19;20026;-47
2022/11/26 04:06:09;;;;;;;29.00;18.60;;;3.30;99.90;;;;;;7374507;19;20021;-44
2022/11/26 04:08:36;;;;;;;41.55;19.55;;;3.40;99.90;;;;;;7380219;19;20565;-44
2022/11/26 04:11:02;;;;;;;33.00;19.75;;;3.40;99.90;;;;;;7376379;19;20018;-49
2022/11/26 04:13:28;;;;;;;37.25;20.95;;;3.40;99.90;;;;;;7379109;19;20011;-45
2022/11/26 04:15:54;;;;;;;32.38;19.75;;;3.50;99.90;;;;;;7375729;19;20015;-44
2022/11/26 04:18:21;;;;;;;41.38;20.02;;;3.50;99.90;;;;;;7379826;19;20017;-45
2022/11/26 04:20:47;;;;;;;42.75;20.48;;;3.50;99.90;;;;;;7381755;19;20029;-48
2022/11/26 04:23:13;;;;;;;49.58;24.38;;;3.50;99.90;;;;;;7379635;19;20046;-50
2022/11/26 04:25:40;;;;;;;39.03;21.13;;;3.50;99.90;;;;;;7377182;19;20018;-44
2022/11/26 04:28:06;;;;;;;50.90;21.67;;;3.50;99.90;;;;;;7373710;19;20014;-48
2022/11/26 04:30:33;;;;;;;47.03;21.73;;;3.50;99.90;;;;;;7380289;19;20376;-47
2022/11/26 04:32:59;;;;;;;46.38;21.98;;;3.50;99.90;;;;;;7378086;19;20089;-47
2022/11/26 04:35:25;;;;;;;37.38;22.20;;;3.50;99.90;;;;;;7377620;19;21472;-49
2022/11/26 04:37:51;;;;;;;42.20;22.73;;;3.50;99.90;;;;;;7378821;19;20014;-47
2022/11/26 04:40:17;;;;;;;50.38;24.08;;;3.50;99.90;;;;;;7379095;19;20022;-49
2022/11/26 04:42:44;;;;;;;43.65;21.98;;;3.60;99.90;;;;;;7380663;19;20464;-46
2022/11/26 04:45:10;;;;;;;58.25;24.70;;;3.60;99.90;;;;;;7375925;19;20493;-45
2022/11/26 04:47:37;;;;;;;62.22;23.00;;;3.60;99.90;;;;;;7374741;19;20022;-44
2022/11/26 04:50:03;;;;;;;57.78;24.70;;;3.60;99.90;;;;;;7377020;19;20022;-48
2022/11/26 04:52:30;;;;;;;49.03;22.58;;;3.60;99.90;;;;;;7379685;19;20025;-47
2022/11/26 04:54:56;;;;;;;41.70;22.83;;;3.60;99.90;;;;;;7377317;19;20010;-48
2022/11/26 04:57:22;;;;;;;39.28;22.33;;;3.50;99.90;;;;;;7377878;19;20106;-44
2022/11/26 04:59:48;;;;;;;42.25;21.55;;;3.50;99.90;;;;;;7377387;19;20022;-48
2022/11/26 05:02:14;;;;;;;41.65;22.15;;;3.50;99.90;;;;;;7378595;19;20047;-44
2022/11/26 05:04:41;;;;;;;42.47;21.73;;;3.50;99.90;;;;;;7378455;19;20026;-44
2022/11/26 05:07:07;;;;;;;43.38;20.67;;;3.40;99.90;;;;;;7372512;19;20065;-44
2022/11/26 05:09:34;;;;;;;39.40;20.75;;;3.40;99.90;;;;;;7371162;19;20018;-45
2022/11/26 05:12:00;;;;;;;38.22;21.30;;;3.40;99.90;;;;;;7378471;19;20029;-44
2022/11/26 05:14:26;;;;;;;46.75;24.13;;;3.40;99.90;;;;;;7378113;19;20017;-47
2022/11/26 05:16:52;;;;;;;49.30;22.50;;;3.40;99.90;;;;;;7377927;19;20651;-44
2022/11/26 05:19:18;;;;;;;43.28;21.65;;;3.40;99.90;;;;;;7374892;19;21159;-45
2022/11/26 05:21:45;;;;;;;40.53;20.88;;;3.40;99.90;;;;;;7377760;19;20012;-45
2022/11/26 05:24:11;;;;;;;45.00;22.73;;;3.40;99.90;;;;;;7376107;19;20038;-45
2022/11/26 05:26:37;;;;;;;42.53;20.88;;;3.40;99.90;;;;;;7379221;19;20024;-45
2022/11/26 05:29:03;;;;;;;30.85;18.73;;;3.30;99.90;;;;;;7377820;19;20030;-48
2022/11/26 05:31:30;;;;;;;33.72;21.00;;;3.30;99.90;;;;;;7374608;19;20133;-46
2022/11/26 05:33:56;;;;;;;48.00;22.60;;;3.30;99.90;;;;;;7374952;19;20454;-47
2022/11/26 05:36:22;;;;;;;38.85;19.88;;;3.30;99.90;;;;;;7377613;19;20026;-46
2022/11/26 05:38:48;;;;;;;43.78;19.77;;;3.20;99.90;;;;;;7377640;19;20490;-46
2022/11/26 05:41:14;;;;;;;39.88;19.70;;;3.20;99.90;;;;;;7383276;19;20383;-44
2022/11/26 05:43:41;;;;;;;37.63;18.50;;;3.20;99.90;;;;;;7384189;19;20454;-45
2022/11/26 05:46:08;;;;;;;57.20;21.10;;;3.20;99.90;;;;;;7383762;19;21584;-52
2022/11/26 05:48:34;;;;;;;33.80;18.75;;;3.20;99.90;;;;;;7384590;19;20133;-48
2022/11/26 05:51:01;;;;;;;37.95;19.17;;;3.10;99.90;;;;;;7383963;19;20025;-45
2022/11/26 05:53:27;;;;;;;38.50;20.00;;;3.20;99.90;;;;;;7383109;19;20613;-45
2022/11/26 05:55:53;;;;;;;37.42;21.13;;;3.10;99.90;;;;;;7385515;19;20046;-46
2022/11/26 05:58:19;;;;;;;63.75;24.02;;;3.20;99.90;;;;;;7382748;19;20010;-46
2022/11/26 06:00:46;;;;;;;51.10;21.80;;;3.20;99.90;;;;;;7382191;19;20018;-44
2022/11/26 06:03:12;;;;;;;44.60;22.23;;;3.20;99.90;;;;;;7381764;19;20018;-44
2022/11/26 06:05:39;;;;;;;57.35;23.67;;;3.30;99.90;;;;;;7386056;19;20022;-44
2022/11/26 06:08:06;;;;;;;56.50;24.60;;;3.40;99.90;;;;;;7379447;19;20018;-45
2022/11/26 06:10:32;;;;;;;43.13;22.10;;;3.40;99.90;;;;;;7381407;19;20026;-47
2022/11/26 06:12:58;;;;;;;69.40;26.20;;;3.40;99.90;;;;;;7380377;19;20014;-45
2022/11/26 06:15:24;;;;;;;86.22;26.90;;;3.40;99.90;;;;;;7380546;19;20018;-46
2022/11/26 06:17:51;;;;;;;49.22;20.35;;;3.40;99.90;;;;;;7383429;19;20419;-46
2022/11/26 06:20:17;;;;;;;54.78;21.88;;;3.30;99.90;;;;;;7382637;19;20050;-45
2022/11/26 06:22:43;;;;;;;77.72;25.48;;;3.40;99.90;;;;;;7382040;19;20054;-45
2022/11/26 06:25:12;;;;;;;105.72;25.05;;;3.40;99.90;;;;;;7382155;19;20022;-45
2022/11/26 06:27:39;;;;;;;112.45;25.38;;;3.40;99.90;;;;;;7382967;19;20078;-45
2022/11/26 06:30:07;;;;;;;91.72;26.80;;;3.40;99.90;;;;;;7384160;19;20028;-46
2022/11/26 06:32:34;;;;;;;95.55;23.90;;;3.40;99.90;;;;;;7381714;19;20050;-47
2022/11/26 06:35:00;;;;;;;83.38;25.92;;;3.40;99.90;;;;;;7380330;19;20039;-49
2022/11/26 06:37:26;;;;;;;116.63;27.92;;;3.40;99.90;;;;;;7383096;19;20042;-48
2022/11/26 06:39:54;;;;;;;73.90;23.90;;;3.50;99.90;;;;;;7381862;19;20370;-49
2022/11/26 06:42:20;;;;;;;92.15;25.08;;;3.50;99.90;;;;;;7381400;19;20029;-46
2022/11/26 06:44:46;;;;;;;98.95;26.05;;;3.50;99.90;;;;;;7379469;19;20015;-49
2022/11/26 06:47:13;;;;;;;69.13;23.25;;;3.40;99.90;;;;;;7377926;19;20018;-46
2022/11/26 06:49:39;;;;;;;85.18;23.13;;;3.40;99.90;;;;;;7380461;19;20023;-45
2022/11/26 06:52:06;;;;;;;108.57;24.73;;;3.50;99.90;;;;;;7375200;19;20027;-47
2022/11/26 06:54:32;;;;;;;59.53;22.17;;;3.50;99.90;;;;;;7379596;19;20023;-46
2022/11/26 06:56:58;;;;;;;88.18;24.67;;;3.40;99.90;;;;;;7380353;19;20025;-48
2022/11/26 06:59:24;;;;;;;50.45;21.33;;;3.50;99.90;;;;;;7382911;19;20018;-44
2022/11/26 07:01:51;;;;;;;89.72;25.58;;;3.40;99.90;;;;;;7379429;19;20527;-46
2022/11/26 07:04:17;;;;;;;47.20;20.40;;;3.50;99.90;;;;;;7382317;19;20453;-45
2022/11/26 07:06:44;;;;;;;93.63;25.17;;;3.50;99.90;;;;;;7379344;19;20025;-43
2022/11/26 07:09:11;;;;;;;62.95;21.08;;;3.50;99.90;;;;;;7378354;19;20053;-45
2022/11/26 07:11:39;;;;;;;61.10;21.17;;;3.50;99.90;;;;;;7376212;19;20078;-48
2022/11/26 07:14:05;;;;;;;85.63;22.45;;;3.50;99.90;;;;;;7379149;19;20025;-46
2022/11/26 07:16:33;;;;;;;63.75;20.50;;;3.50;99.90;;;;;;7381916;19;21201;-49
2022/11/26 07:18:59;;;;;;;68.72;22.60;;;3.40;99.90;;;;;;7381946;19;20605;-46
2022/11/26 07:21:26;;;;;;;70.60;26.67;;;3.40;99.90;;;;;;7388602;19;20462;-44
2022/11/26 07:23:53;;;;;;;55.63;19.88;;;3.50;99.90;;;;;;7379066;19;20552;-44
2022/11/26 07:26:21;;;;;;;43.30;19.38;;;3.50;99.90;;;;;;7378398;19;20025;-48
2022/11/26 07:28:48;;;;;;;60.53;19.63;;;3.50;99.90;;;;;;7385627;19;20052;-45
2022/11/26 07:31:17;;;;;;;47.90;19.65;;;3.40;99.90;;;;;;7392586;19;20483;-44
2022/11/26 07:33:44;;;;;;;62.38;20.70;;;3.50;99.90;;;;;;7382222;19;20596;-44
2022/11/26 07:36:18;;;;;;;65.10;20.85;;;3.50;99.90;;;;;;7381574;19;20041;-45
2022/11/26 07:38:44;;;;;;;48.40;18.73;;;3.40;99.90;;;;;;7378496;19;20098;-48
2022/11/26 07:41:14;;;;;;;37.67;18.55;;;3.50;99.90;;;;;;7389357;19;20018;-45
2022/11/26 07:43:42;;;;;;;38.22;19.90;;;3.50;99.90;;;;;;7385832;19;20022;-47
2022/11/26 07:46:11;;;;;;;50.85;20.13;;;3.60;99.90;;;;;;7390059;19;20018;-46
2022/11/26 07:48:39;;;;;;;48.10;20.48;;;3.60;99.90;;;;;;7383322;19;20074;-44
2022/11/26 07:51:07;;;;;;;49.75;20.17;;;3.60;99.90;;;;;;7380858;19;20148;-44
2022/11/26 07:53:34;;;;;;;47.38;19.60;;;3.60;99.90;;;;;;7387149;19;20020;-46
2022/11/26 07:56:05;;;;;;;48.15;21.23;;;3.70;99.90;;;;;;7389578;19;20038;-44
2022/11/26 07:58:31;;;;;;;63.78;23.17;;;3.70;99.90;;;;;;7388844;19;20018;-45
2022/11/26 08:01:09;;;;;;;49.72;20.17;;;3.80;99.90;;;;;;7381428;19;20039;-44
2022/11/26 08:03:46;;;;;;;31.05;18.13;;;3.80;99.90;;;;;;7377195;19;20018;-43
2022/11/26 08:06:23;;;;;;;36.72;19.10;;;3.90;99.90;;;;;;7377719;19;20493;-46
2022/11/26 08:08:51;;;;;;;31.58;18.45;;;4.00;99.90;;;;;;7375035;19;20466;-44
2022/11/26 08:11:20;;;;;;;38.72;21.55;;;4.10;99.90;;;;;;7377546;19;20014;-44
2022/11/26 08:13:47;;;;;;;40.05;19.58;;;4.20;99.90;;;;;;7377149;19;20022;-46
2022/11/26 08:16:14;;;;;;;31.23;18.27;;;4.30;99.90;;;;;;7373243;19;20018;-44
2022/11/26 08:18:40;;;;;;;41.22;19.15;;;4.40;99.90;;;;;;7377856;19;20620;-43
2022/11/26 08:21:07;;;;;;;34.17;19.75;;;4.50;99.90;;;;;;7376376;19;20015;-44
2022/11/26 08:23:34;;;;;;;30.33;18.52;;;4.50;99.90;;;;;;7381004;19;20019;-44
2022/11/26 08:26:06;;;;;;;37.05;19.30;;;4.60;99.90;;;;;;7376223;19;20026;-46
2022/11/26 08:28:32;;;;;;;30.45;17.98;;;4.70;99.90;;;;;;7382872;19;20105;-44
2022/11/26 08:31:01;;;;;;;31.33;19.05;;;4.80;99.90;;;;;;7388931;19;20015;-44
2022/11/26 08:33:28;;;;;;;29.25;18.45;;;4.90;99.90;;;;;;7387878;19;20022;-44
2022/11/26 08:35:54;;;;;;;32.38;17.35;;;5.00;99.90;;;;;;7385469;19;20019;-46
2022/11/26 08:38:21;;;;;;;31.52;18.20;;;5.10;99.90;;;;;;7380898;19;20018;-45
2022/11/26 08:40:47;;;;;;;29.90;16.55;;;5.20;99.90;;;;;;7383218;19;20056;-44
2022/11/26 08:43:14;;;;;;;28.05;17.10;;;5.30;99.90;;;;;;7376085;19;20015;-45
2022/11/26 08:45:40;;;;;;;27.05;15.98;;;5.40;99.90;;;;;;7372869;19;20424;-43
2022/11/26 08:48:06;;;;;;;25.55;16.35;;;5.50;99.90;;;;;;7382609;19;20025;-46
2022/11/26 08:50:33;;;;;;;25.65;15.45;;;5.50;99.90;;;;;;7371758;19;20086;-46
2022/11/26 08:52:59;;;;;;;24.25;15.98;;;5.60;99.90;;;;;;7372657;19;20022;-45
2022/11/26 08:55:26;;;;;;;21.50;14.95;;;5.70;99.90;;;;;;7370690;19;20593;-43
2022/11/26 08:57:52;;;;;;;26.35;15.38;;;5.70;99.90;;;;;;7375000;19;20048;-45
2022/11/26 09:00:19;;;;;;;24.73;16.17;;;5.80;99.90;;;;;;7368282;19;20098;-43
2022/11/26 09:02:45;;;;;;;26.35;15.95;;;5.80;99.90;;;;;;7374686;19;20484;-44
2022/11/26 09:05:11;;;;;;;24.27;15.27;;;5.90;99.90;;;;;;7370226;19;20356;-44
2022/11/26 09:07:38;;;;;;;28.70;16.48;;;5.90;99.90;;;;;;7372517;19;20062;-45
2022/11/26 09:10:05;;;;;;;22.92;14.88;;;5.90;99.90;;;;;;7370738;19;20047;-47
2022/11/26 09:12:32;;;;;;;27.88;15.48;;;6.00;99.90;;;;;;7371354;19;20498;-44
2022/11/26 09:14:58;;;;;;;25.55;15.63;;;6.10;99.90;;;;;;7366427;19;20020;-45
2022/11/26 09:17:25;;;;;;;22.67;15.80;;;6.10;99.90;;;;;;7374503;19;20015;-46
2022/11/26 09:19:51;;;;;;;30.27;16.35;;;6.20;99.90;;;;;;7372284;19;20609;-45
2022/11/26 09:22:17;;;;;;;27.33;17.30;;;6.20;99.90;;;;;;7371652;19;20486;-44
2022/11/26 09:24:43;;;;;;;26.67;17.38;;;6.20;99.90;;;;;;7373326;19;20019;-44
2022/11/26 09:27:11;;;;;;;30.70;16.88;;;6.30;99.90;;;;;;7369430;19;20014;-47
2022/11/26 09:29:37;;;;;;;30.48;16.48;;;6.30;99.90;;;;;;7371564;19;20103;-46
2022/11/26 09:32:03;;;;;;;27.33;17.00;;;6.40;99.90;;;;;;7369821;19;20025;-47
2022/11/26 09:34:30;;;;;;;25.08;15.85;;;6.50;99.90;;;;;;7374649;19;20022;-45
2022/11/26 09:36:56;;;;;;;26.52;16.70;;;6.50;99.90;;;;;;7373377;19;20014;-45
2022/11/26 09:39:22;;;;;;;22.30;16.25;;;6.60;99.90;;;;;;7371104;19;20078;-44
2022/11/26 09:41:59;;;;;;;20.98;15.60;;;6.70;99.90;;;;;;7371932;19;20604;-45
2022/11/26 09:44:44;;;;;;;24.27;15.93;;;6.70;99.90;;;;;;7374146;19;20015;-47
2022/11/26 09:47:34;;;;;;;26.30;16.58;;;6.80;99.90;;;;;;7369537;19;20486;-43
2022/11/26 09:50:22;;;;;;;26.15;17.30;;;6.90;99.90;;;;;;7381730;19;20010;-48
2022/11/26 09:52:56;;;;;;;26.67;16.98;;;7.00;99.90;;;;;;7374519;19;20022;-45
2022/11/26 09:55:31;;;;;;;25.63;15.85;;;7.10;99.90;;;;;;7384423;19;20045;-45
2022/11/26 09:58:16;;;;;;;31.83;17.13;;;7.10;99.90;;;;;;7384936;19;20420;-45
2022/11/26 10:00:45;;;;;;;27.75;17.80;;;7.00;99.90;;;;;;7378552;19;20078;-43
2022/11/26 10:03:15;;;;;;;27.90;18.65;;;7.10;99.90;;;;;;7370202;19;20361;-45
2022/11/26 10:06:00;;;;;;;32.45;20.25;;;7.00;99.90;;;;;;7371366;19;20026;-45
2022/11/26 10:08:54;;;;;;;36.65;21.10;;;7.10;99.90;;;;;;7384872;19;20400;-45
2022/11/26 10:11:47;;;;;;;36.05;22.17;;;7.10;99.90;;;;;;7382839;19;20040;-49
2022/11/26 10:14:13;;;;;;;38.10;21.33;;;7.10;99.90;;;;;;7371250;19;20658;-44
2022/11/26 10:17:14;;;;;;;33.15;23.30;;;7.10;99.90;;;;;;7365078;19;20014;-44
2022/11/26 10:20:14;;;;;;;37.58;24.75;;;7.10;99.90;;;;;;7361267;19;20022;-47
2022/11/26 10:22:58;;;;;;;46.92;28.45;;;7.10;99.90;;;;;;7374322;19;20561;-46
2022/11/26 10:25:28;;;;;;;46.47;27.60;;;7.00;99.90;;;;;;7367443;19;20065;-46
2022/11/26 10:27:58;;;;;;;46.53;29.65;;;7.10;99.90;;;;;;7376077;19;20478;-45
2022/11/26 10:30:29;;;;;;;52.70;29.60;;;7.10;99.90;;;;;;7373786;19;20026;-44
2022/11/26 10:32:59;;;;;;;53.13;29.40;;;7.20;99.90;;;;;;7374411;19;20050;-44
2022/11/26 10:35:28;;;;;;;51.65;29.85;;;7.10;99.90;;;;;;7377917;19;20286;-45
2022/11/26 10:37:56;;;;;;;58.90;29.05;;;7.10;99.90;;;;;;7372941;19;20028;-45
2022/11/26 10:40:26;;;;;;;53.63;29.67;;;7.20;99.90;;;;;;7373416;19;20090;-48
2022/11/26 10:43:08;;;;;;;51.90;30.35;;;7.10;99.90;;;;;;7372307;19;20469;-47
2022/11/26 10:45:38;;;;;;;51.50;30.58;;;7.20;99.90;;;;;;7375865;19;20011;-48
2022/11/26 10:48:22;;;;;;;60.60;31.77;;;7.20;99.90;;;;;;7373320;19;20033;-47
2022/11/26 10:51:14;;;;;;;55.17;31.00;;;7.30;99.90;;;;;;7362364;19;20014;-46
2022/11/26 10:54:00;;;;;;;56.17;32.17;;;7.30;99.90;;;;;;7371384;19;20014;-44
2022/11/26 10:56:39;;;;;;;54.58;31.88;;;7.40;99.90;;;;;;7371011;19;20050;-49
2022/11/26 10:59:17;;;;;;;60.35;32.25;;;7.40;99.90;;;;;;7369962;19;20026;-48
2022/11/26 11:01:44;;;;;;;58.00;33.03;;;7.40;99.90;;;;;;7373901;19;20101;-47
2022/11/26 11:04:29;;;;;;;53.92;31.70;;;7.50;99.90;;;;;;7369699;19;20022;-45
2022/11/26 11:06:56;;;;;;;60.58;32.05;;;7.60;99.90;;;;;;7373312;19;20018;-46
2022/11/26 11:09:36;;;;;;;54.30;32.13;;;7.70;99.90;;;;;;7373281;19;20026;-44
2022/11/26 11:12:09;;;;;;;57.00;32.40;;;7.70;99.90;;;;;;7369809;19;20011;-45
2022/11/26 11:14:37;;;;;;;50.38;31.98;;;7.70;99.90;;;;;;7370486;19;20014;-47
2022/11/26 11:17:03;;;;;;;56.85;32.60;;;7.70;99.90;;;;;;7369988;19;20026;-47
2022/11/26 11:19:30;;;;;;;56.38;31.38;;;7.80;99.90;;;;;;7369350;19;20497;-48
2022/11/26 11:21:57;;;;;;;47.85;28.95;;;7.80;99.90;;;;;;7368010;19;20418;-42
2022/11/26 11:24:27;;;;;;;49.72;30.80;;;7.90;99.90;;;;;;7371485;19;20015;-47
2022/11/26 11:27:01;;;;;;;47.50;28.48;;;7.90;99.90;;;;;;7369173;19;20453;-46
2022/11/26 11:29:27;;;;;;;52.60;29.85;;;7.90;99.90;;;;;;7370727;19;20022;-45
2022/11/26 11:31:55;;;;;;;47.95;29.02;;;7.90;99.90;;;;;;7372505;19;20018;-48
2022/11/26 11:34:43;;;;;;;48.78;28.42;;;8.00;99.90;;;;;;7362987;19;20042;-49
2022/11/26 11:37:20;;;;;;;46.20;30.05;;;8.00;99.90;;;;;;7364947;19;20465;-45
2022/11/26 11:40:02;;;;;;;47.47;29.85;;;8.00;99.90;;;;;;7371096;19;20118;-47
2022/11/26 11:42:31;;;;;;;47.38;27.50;;;8.10;99.90;;;;;;7370614;19;20023;-44
2022/11/26 11:44:59;;;;;;;51.10;29.00;;;8.10;99.90;;;;;;7369473;19;20553;-44
2022/11/26 11:47:31;;;;;;;47.38;28.58;;;8.10;99.90;;;;;;7370586;19;20078;-41
2022/11/26 11:50:05;;;;;;;;;;;8.20;99.90;;;;;;7366986;19;20026;-43
2022/11/26 11:52:54;;;;;;;47.00;26.55;;;8.10;99.90;;;;;;7371787;19;20315;-42
2022/11/26 11:55:32;;;;;;;44.03;26.38;;;8.20;99.90;;;;;;7371091;19;20019;-41
2022/11/26 11:58:24;;;;;;;41.65;26.20;;;8.30;99.90;;;;;;7368128;19;20088;-44
2022/11/26 12:00:50;;;;;;;46.45;26.50;;;8.30;99.90;;;;;;7371211;19;20021;-45
2022/11/26 12:03:38;;;;;;;51.05;30.92;;;8.40;99.90;;;;;;7369584;19;20081;-44
2022/11/26 12:06:13;;;;;;;40.20;26.35;;;8.50;99.90;;;;;;7363665;19;20026;-43
2022/11/26 12:09:01;;;;;;;46.47;28.33;;;8.50;99.90;;;;;;7348992;19;20580;-46
2022/11/26 12:12:18;;;;;;;42.60;25.65;;;8.40;99.90;;;;;;7359164;19;20371;-44
2022/11/26 12:14:51;;;;;;;44.67;25.55;;;8.50;99.90;;;;;;7355758;19;20799;-44
2022/11/26 12:17:39;;;;;;;41.35;23.48;;;8.50;99.90;;;;;;7354076;19;20018;-47
2022/11/26 12:20:35;;;;;;;39.28;22.98;;;8.50;99.90;;;;;;7355687;19;20015;-46
2022/11/26 12:23:22;;;;;;;36.47;22.85;;;8.50;99.90;;;;;;7354421;19;20034;-46
2022/11/26 12:26:16;;;;;;;34.97;23.02;;;8.50;99.90;;;;;;7356615;19;20026;-49
2022/11/26 12:29:27;;;;;;;39.72;22.73;;;8.60;99.90;;;;;;7360551;19;20018;-48
2022/11/26 12:31:58;;;;;;;39.13;21.42;;;8.50;99.90;;;;;;7356087;19;20499;-43
2022/11/26 12:34:39;;;;;;;42.10;23.53;;;8.50;99.90;;;;;;7354900;19;20015;-44
2022/11/26 12:37:39;;;;;;;37.28;22.73;;;8.50;99.90;;;;;;7355907;19;20026;-48
2022/11/26 12:40:34;;;;;;;36.67;21.67;;;8.50;99.90;;;;;;7353016;19;20022;-44
2022/11/26 12:43:18;;;;;;;37.95;21.00;;;8.60;99.90;;;;;;7357836;19;20363;-50
2022/11/26 12:45:53;;;;;;;38.80;21.83;;;8.60;99.90;;;;;;7363307;19;20031;-49
2022/11/26 12:48:36;;;;;;;39.42;21.25;;;8.60;99.90;;;;;;7357920;19;20880;-43
2022/11/26 12:51:30;;;;;;;36.80;21.90;;;8.60;99.90;;;;;;7359626;19;20395;-51
2022/11/26 12:54:30;;;;;;;34.58;21.63;;;8.60;99.90;;;;;;7361391;19;20022;-50
2022/11/26 12:57:14;;;;;;;45.22;22.75;;;8.60;99.90;;;;;;7359963;19;20033;-45
2022/11/26 13:00:05;;;;;;;51.70;23.10;;;8.70;99.90;;;;;;7354410;19;20103;-44